Time;durP1;ratioP1;P1;durP2;ratioP2;P2;SDS_P1;SDS_P2;PMS_P1;PMS_P2;Temp;Humidity;BMP_temperature;BMP_pressure;BME280_temperature;BME280_humidity;BME280_pressure;Samples;Min_cycle;Max_cycle;Signal;HPM_P1;HPM_P2
2024/04/22 00:01:29;;;;;;;4.32;1.77;;;2.20;99.90;;;0.69;83.09;102231.97;5339950;26;20097;-79
2024/04/22 00:04:04;;;;;;;3.53;2.30;;;2.20;99.90;;;0.73;82.83;102230.28;5381523;26;20010;-78
2024/04/22 00:06:30;;;;;;;6.05;3.10;;;2.20;99.90;;;0.72;83.48;102234.63;5300735;26;20018;-78
2024/04/22 00:08:57;;;;;;;5.80;2.67;;;2.20;99.90;;;0.71;82.70;102231.97;5372061;26;19999;-78
2024/04/22 00:11:23;;;;;;;7.32;2.80;;;2.20;99.90;;;0.64;83.16;102228.41;5367418;26;20015;-78
2024/04/22 00:13:51;;;;;;;5.13;2.83;;;2.10;99.90;;;0.56;83.52;102228.28;5375916;26;20027;-78
2024/04/22 00:16:22;;;;;;;7.90;2.95;;;2.00;99.90;;;0.52;84.09;102216.09;5355384;26;20051;-78
2024/04/22 00:18:48;;;;;;;5.03;2.22;;;2.00;99.90;;;0.48;84.32;102218.63;5348155;26;20010;-78
2024/04/22 00:21:14;;;;;;;6.95;2.90;;;2.00;99.90;;;0.42;84.18;102211.59;5343291;26;20080;-78
2024/04/22 00:23:39;;;;;;;5.95;3.13;;;2.00;99.90;;;0.38;85.01;102213.25;5348015;26;20022;-78
2024/04/22 00:26:05;;;;;;;6.38;2.80;;;1.90;99.90;;;0.35;84.81;102207.16;5363970;26;20011;-78
2024/04/22 00:28:31;;;;;;;5.50;2.72;;;1.90;99.90;;;0.36;85.29;102212.34;5414510;26;20062;-78
2024/04/22 00:31:02;;;;;;;5.50;2.35;;;1.90;99.90;;;0.38;85.32;102200.28;5321775;26;20337;-78
2024/04/22 00:33:28;;;;;;;3.75;2.53;;;2.00;99.90;;;0.41;85.13;102207.22;5342691;26;20019;-79
2024/04/22 00:35:59;;;;;;;6.65;2.80;;;1.90;99.90;;;0.42;84.85;102206.41;5317158;26;20015;-78
2024/04/22 00:38:30;;;;;;;6.53;2.70;;;1.90;99.90;;;0.44;85.10;102203.84;5332885;26;20014;-78
2024/04/22 00:40:57;;;;;;;5.95;2.80;;;1.90;99.90;;;0.39;85.28;102204.63;5313356;26;20015;-78
2024/04/22 00:43:23;;;;;;;7.85;2.80;;;1.90;99.90;;;0.34;85.57;102197.59;5327556;26;20032;-78
2024/04/22 00:45:50;;;;;;;6.90;2.67;;;1.90;99.90;;;0.32;85.90;102202.75;5323512;26;20415;-78
2024/04/22 00:48:22;;;;;;;6.68;3.40;;;1.90;99.90;;;0.33;86.02;102201.06;5324153;26;20344;-78
2024/04/22 00:50:52;;;;;;;6.32;2.75;;;1.90;99.90;;;0.36;85.64;102198.50;5337073;26;20055;-78
2024/04/22 00:53:18;;;;;;;5.07;2.67;;;1.90;99.90;;;0.38;85.78;102199.41;5343855;26;20028;-78
2024/04/22 00:55:46;;;;;;;6.20;2.70;;;1.90;99.90;;;0.39;86.19;102201.19;5395726;26;19999;-78
2024/04/22 00:58:16;;;;;;;6.68;3.75;;;1.90;99.90;;;0.40;86.24;102197.72;5349306;26;20015;-79
2024/04/22 01:00:45;;;;;;;7.55;3.35;;;1.90;99.90;;;0.37;86.91;102193.38;5277456;26;20446;-78
2024/04/22 01:03:14;;;;;;;8.50;3.13;;;1.90;99.90;;;0.33;87.46;102193.28;5371592;26;20362;-78
2024/04/22 01:05:42;;;;;;;6.38;3.13;;;1.90;99.90;;;0.30;88.27;102188.03;5382879;26;20019;-78
2024/04/22 01:08:09;;;;;;;10.25;3.22;;;1.90;99.90;;;0.29;88.97;102184.56;5327642;26;20548;-78
2024/04/22 01:10:35;;;;;;;6.20;3.42;;;1.90;99.90;;;0.29;89.23;102187.16;5375959;26;20011;-78
2024/04/22 01:13:01;;;;;;;10.85;3.72;;;1.90;99.90;;;0.32;89.67;102186.34;5339886;26;20009;-78
2024/04/22 01:15:27;;;;;;;10.15;3.63;;;1.90;99.90;;;0.29;90.14;102174.22;5326433;26;20709;-78
2024/04/22 01:17:57;;;;;;;8.25;3.22;;;1.90;99.90;;;0.27;90.62;102180.22;5391311;26;20021;-78
2024/04/22 01:20:23;;;;;;;6.90;2.95;;;1.90;99.90;;;0.22;92.21;102182.72;5365229;26;20355;-78
2024/04/22 01:22:49;;;;;;;5.10;3.00;;;1.90;99.90;;;0.18;93.50;102173.13;5346260;26;20086;-78
2024/04/22 01:25:17;;;;;;;5.25;2.90;;;1.90;99.90;;;0.21;94.63;102175.78;5335238;26;20350;-78
2024/04/22 01:27:43;;;;;;;6.47;3.10;;;2.00;99.90;;;0.22;95.86;102176.63;5391102;26;20003;-78
2024/04/22 01:30:15;;;;;;;5.05;3.35;;;1.90;99.90;;;0.24;97.00;102180.13;5384622;26;20008;-78
2024/04/22 01:32:41;;;;;;;7.68;3.25;;;2.00;99.90;;;0.24;97.83;102174.94;5358377;26;19992;-78
2024/04/22 01:35:07;;;;;;;7.43;2.72;;;2.00;99.90;;;0.24;98.50;102177.53;5344250;26;20004;-78
2024/04/22 01:37:33;;;;;;;8.43;2.67;;;2.00;99.90;;;0.19;99.78;102178.34;5310630;26;19999;-78
2024/04/22 01:39:59;;;;;;;8.07;2.72;;;2.00;99.90;;;0.24;100.00;102169.75;5320349;26;20094;-78
2024/04/22 01:42:28;;;;;;;6.45;2.67;;;2.00;99.90;;;0.25;100.00;102171.53;5354131;26;20020;-78
2024/04/22 01:44:54;;;;;;;10.32;3.63;;;2.00;99.90;;;0.30;100.00;102172.47;5337482;26;20004;-78
2024/04/22 01:47:19;;;;;;;7.78;3.22;;;2.00;99.90;;;0.30;100.00;102163.00;5336298;26;20011;-78
2024/04/22 01:49:45;;;;;;;6.82;3.28;;;2.00;99.90;;;0.32;100.00;102158.69;5363850;26;19996;-78
2024/04/22 01:52:13;;;;;;;7.28;3.42;;;2.00;99.90;;;0.32;100.00;102157.84;5345934;26;20064;-78
2024/04/22 01:54:47;;;;;;;5.97;3.33;;;2.10;99.90;;;0.35;100.00;102163.09;5373406;26;20007;-78
2024/04/22 01:57:13;;;;;;;5.82;3.42;;;2.10;99.90;;;0.38;100.00;102158.81;5315251;26;20000;-78
2024/04/22 01:59:39;;;;;;;8.25;3.80;;;2.10;99.90;;;0.39;100.00;102158.00;5335650;26;20083;-78
2024/04/22 02:02:04;;;;;;;6.28;3.55;;;2.10;99.90;;;0.35;100.00;102156.19;5300710;26;20465;-79
2024/04/22 02:04:30;;;;;;;7.43;3.72;;;2.10;99.90;;;0.36;100.00;102151.88;5315813;26;19999;-78
2024/04/22 02:07:01;;;;;;;8.27;3.45;;;2.00;99.90;;;0.36;100.00;102141.50;5364856;26;20877;-78
2024/04/22 02:09:28;;;;;;;9.73;3.33;;;2.10;99.90;;;0.37;100.00;102140.69;5339977;26;19997;-78
2024/04/22 02:11:54;;;;;;;8.02;3.38;;;2.10;99.90;;;0.33;100.00;102144.06;5369356;26;20928;-78
2024/04/22 02:14:20;;;;;;;5.15;3.03;;;2.10;99.90;;;0.32;100.00;102145.75;5334655;26;20020;-79
2024/04/22 02:16:51;;;;;;;10.60;3.90;;;2.10;99.90;;;0.31;100.00;102143.16;5288011;26;20005;-78
2024/04/22 02:19:17;;;;;;;7.75;3.60;;;2.10;99.90;;;0.26;100.00;102147.34;5294192;26;20010;-78
2024/04/22 02:21:43;;;;;;;14.00;3.88;;;2.00;99.90;;;0.31;100.00;102150.91;5359890;26;20040;-78
2024/04/22 02:24:09;;;;;;;6.53;3.30;;;2.10;99.90;;;0.29;100.00;102144.84;5380709;26;21367;-78
2024/04/22 02:26:34;;;;;;;7.20;3.22;;;2.00;99.90;;;0.28;100.00;102148.25;5397343;26;20089;-78
2024/04/22 02:29:00;;;;;;;7.95;3.50;;;2.00;99.90;;;0.31;100.00;102149.19;5360348;26;20031;-78
2024/04/22 02:31:26;;;;;;;7.65;3.25;;;2.10;99.90;;;0.28;100.00;102156.03;5369456;26;20011;-79
2024/04/22 02:33:57;;;;;;;8.35;3.80;;;2.10;99.90;;;0.31;100.00;102161.28;5383178;26;20077;-78
2024/04/22 02:36:22;;;;;;;6.30;3.40;;;2.00;99.90;;;0.28;100.00;102154.34;5373391;26;20018;-78
2024/04/22 02:38:48;;;;;;;6.75;3.28;;;2.00;99.90;;;0.24;100.00;102149.94;5382513;26;20014;-78
2024/04/22 02:41:14;;;;;;;7.85;3.40;;;3.30;99.90;;;0.24;100.00;102149.03;5314102;26;20023;-78
2024/04/22 02:43:40;;;;;;;6.75;3.38;;;2.00;99.90;;;0.26;100.00;102131.81;5385690;26;20000;-78
2024/04/22 02:46:06;;;;;;;6.28;3.60;;;2.30;99.90;;;0.27;100.00;102139.63;5357843;26;20007;-78
2024/04/22 02:48:34;;;;;;;8.02;3.50;;;2.00;99.90;;;0.25;100.00;102140.44;5347898;26;20015;-78
2024/04/22 02:51:03;;;;;;;12.45;4.00;;;2.00;99.90;;;0.24;100.00;102139.56;5379926;26;19999;-78
2024/04/22 02:53:29;;;;;;;7.20;3.33;;;2.00;99.90;;;0.25;100.00;102146.50;5317338;26;20015;-79
2024/04/22 02:55:55;;;;;;;6.57;3.78;;;2.00;99.90;;;0.22;100.00;102135.19;5299297;26;20003;-78
2024/04/22 02:58:21;;;;;;;6.10;3.60;;;2.00;99.90;;;0.24;100.00;102133.50;5397080;26;20017;-79
2024/04/22 03:00:48;;;;;;;11.13;3.80;;;2.00;99.90;;;0.26;100.00;102134.41;5326942;26;19997;-79
2024/04/22 03:03:16;;;;;;;11.30;4.25;;;2.00;99.90;;;0.26;100.00;102130.13;5294343;26;20514;-79
2024/04/22 03:05:42;;;;;;;9.35;4.43;;;2.00;99.90;;;0.30;100.00;102131.03;5292355;26;20113;-79
2024/04/22 03:08:08;;;;;;;7.00;4.03;;;2.00;99.90;;;0.33;100.00;102133.69;5294936;26;20060;-79
2024/04/22 03:10:38;;;;;;;8.02;4.05;;;2.10;99.90;;;0.34;100.00;102131.09;5298148;26;20050;-79
2024/04/22 03:13:11;;;;;;;10.43;3.75;;;2.10;99.90;;;0.35;100.00;102121.63;5346118;26;20048;-78
2024/04/22 03:15:38;;;;;;;8.10;4.55;;;2.00;99.90;;;0.36;100.00;102124.22;5322082;26;20516;-79
2024/04/22 03:18:05;;;;;;;8.40;4.10;;;2.00;99.90;;;0.37;100.00;102125.13;5307193;26;20103;-78
2024/04/22 03:20:37;;;;;;;7.93;3.58;;;2.10;99.90;;;0.34;100.00;102125.06;5319710;26;22662;-79
2024/04/22 03:23:03;;;;;;;6.35;3.55;;;2.10;99.90;;;0.35;100.00;102125.09;5301261;26;20008;-78
2024/04/22 03:25:29;;;;;;;7.00;4.43;;;2.00;99.90;;;0.38;100.00;102126.84;5269036;26;20082;-79
2024/04/22 03:27:54;;;;;;;14.50;4.65;;;2.10;99.90;;;0.40;100.00;102123.44;5280391;26;20003;-79
2024/04/22 03:30:20;;;;;;;12.60;4.85;;;2.10;99.90;;;0.43;100.00;102120.03;5305934;26;20004;-79
2024/04/22 03:32:46;;;;;;;11.30;4.78;;;2.10;99.90;;;0.43;100.00;102121.75;5295828;26;20020;-78
2024/04/22 03:35:17;;;;;;;7.75;4.70;;;2.10;99.90;;;0.39;100.00;102118.25;5272819;26;20025;-79
2024/04/22 03:37:44;;;;;;;8.63;4.25;;;2.10;99.90;;;0.39;100.00;102118.25;5319364;26;20515;-79
2024/04/22 03:40:09;;;;;;;11.85;4.35;;;2.10;99.90;;;0.35;100.00;102103.50;5304420;26;20379;-79
2024/04/22 03:42:36;;;;;;;8.98;4.03;;;2.10;99.90;;;0.35;100.00;102106.09;5298635;26;20035;-79
2024/04/22 03:45:02;;;;;;;10.43;4.30;;;2.10;99.90;;;0.33;100.00;102107.78;5381855;26;20016;-80
2024/04/22 03:50:14;;;;;;;9.80;4.35;;;2.10;99.90;;;0.36;100.00;102102.63;5308484;26;20413;-79
2024/04/22 03:52:40;;;;;;;10.10;3.90;;;2.10;99.90;;;0.34;100.00;102106.91;5316703;26;20009;-80
2024/04/22 03:55:06;;;;;;;10.30;4.32;;;2.10;99.90;;;0.37;100.00;102107.00;5326490;26;20471;-80
2024/04/22 03:57:32;;;;;;;10.68;4.30;;;2.10;99.90;;;0.41;100.00;102100.97;5284713;26;20008;-80
2024/04/22 03:59:58;;;;;;;9.73;3.92;;;2.10;99.90;;;0.39;100.00;102103.56;5322542;26;20129;-80
2024/04/22 04:02:32;;;;;;;8.25;4.13;;;3.20;99.90;;;0.37;100.00;102104.41;5285065;26;20018;-80
2024/04/22 04:04:58;;;;;;;9.65;4.15;;;2.10;99.90;;;0.38;100.00;102116.50;5309826;26;20005;-81
2024/04/22 04:07:24;;;;;;;10.27;4.28;;;2.10;99.90;;;0.40;100.00;102105.31;5354540;26;20058;-80
2024/04/22 04:09:49;;;;;;;11.82;4.60;;;2.10;99.90;;;0.44;100.00;102098.47;5323249;26;21281;-81
2024/04/22 04:12:21;;;;;;;9.18;4.05;;;2.10;99.90;;;0.46;100.00;102104.56;5358318;26;20046;-80
2024/04/22 04:14:46;;;;;;;10.70;4.30;;;2.10;99.90;;;0.44;100.00;102102.78;5281933;26;20000;-81
2024/04/22 04:17:12;;;;;;;10.73;4.57;;;2.10;99.90;;;0.42;100.00;102100.16;5329579;26;20007;-80
2024/04/22 04:19:38;;;;;;;9.73;4.43;;;2.10;99.90;;;0.43;100.00;102098.44;5332784;26;20481;-81
2024/04/22 04:22:04;;;;;;;16.00;4.25;;;2.10;99.90;;;0.47;100.00;102095.03;5310001;26;20354;-80
2024/04/22 04:24:30;;;;;;;11.88;4.57;;;2.10;99.90;;;0.48;100.00;102097.69;5337403;26;20040;-80
2024/04/22 04:27:03;;;;;;;9.77;4.72;;;2.10;99.90;;;0.48;100.00;102095.09;5263505;26;20009;-81
2024/04/22 04:29:29;;;;;;;12.60;5.10;;;2.10;99.90;;;0.52;100.00;102085.63;5291252;26;20031;-81
2024/04/22 04:31:55;;;;;;;13.77;4.18;;;2.10;99.90;;;0.52;100.00;102099.47;5371434;26;20000;-80
2024/04/22 04:34:21;;;;;;;11.32;4.95;;;2.10;99.90;;;0.54;100.00;102096.88;5335936;26;20067;-80
2024/04/22 04:36:46;;;;;;;13.82;5.32;;;2.20;99.90;;;0.56;100.00;102090.00;5321871;26;20015;-81
2024/04/22 04:39:20;;;;;;;15.45;5.32;;;2.20;99.90;;;0.59;100.00;102095.25;5342573;26;20061;-81
2024/04/22 04:41:45;;;;;;;10.15;4.20;;;2.20;99.90;;;0.54;100.00;102104.66;5254547;26;20018;-81
2024/04/22 04:44:12;;;;;;;16.00;5.20;;;2.20;99.90;;;0.54;100.00;102092.59;5301327;26;20649;-81
2024/04/22 04:46:38;;;;;;;10.13;4.60;;;2.20;99.90;;;0.52;100.00;102098.56;5284276;26;20015;-81
2024/04/22 04:49:13;;;;;;;9.48;4.32;;;2.20;99.90;;;0.52;100.00;102089.09;5313291;26;20020;-81
2024/04/22 04:51:40;;;;;;;14.95;4.78;;;2.20;99.90;;;0.52;100.00;102091.69;5281299;26;20004;-82
2024/04/22 04:54:06;;;;;;;9.13;4.32;;;2.20;99.90;;;0.54;100.00;102102.06;5322259;26;20007;-82
2024/04/22 04:56:32;;;;;;;11.95;5.13;;;2.20;99.90;;;0.55;100.00;102096.06;5303757;26;20450;-82
2024/04/22 04:58:57;;;;;;;15.10;4.75;;;2.20;99.90;;;0.57;100.00;102091.78;5280001;26;19996;-82
2024/04/22 05:01:23;;;;;;;10.32;5.40;;;2.20;99.90;;;0.52;100.00;102083.94;5336452;26;20019;-81
2024/04/22 05:03:55;;;;;;;11.75;5.28;;;2.20;99.90;;;0.57;100.00;102087.44;5334706;26;20019;-82
2024/04/22 05:06:21;;;;;;;14.85;5.15;;;2.20;99.90;;;0.56;100.00;102085.72;5296523;26;20000;-82
2024/04/22 05:08:46;;;;;;;15.65;5.45;;;2.20;99.90;;;0.56;100.00;102085.72;5288674;26;20427;-84
2024/04/22 05:11:12;;;;;;;10.80;5.15;;;2.10;99.90;;;0.55;100.00;102089.16;5383939;26;19998;-82
2024/04/22 05:13:38;;;;;;;11.02;4.88;;;2.20;99.90;;;0.55;100.00;102089.16;5388714;26;20019;-83
2024/04/22 05:16:05;;;;;;;11.77;5.05;;;2.20;99.90;;;0.60;100.00;102086.63;5318536;26;19998;-82
2024/04/22 05:18:35;;;;;;;12.93;5.32;;;2.20;99.90;;;0.63;100.00;102090.97;5345968;26;20006;-82
2024/04/22 05:21:01;;;;;;;12.32;4.97;;;2.20;99.90;;;0.64;100.00;102087.56;5371001;26;20476;-82
2024/04/22 05:23:27;;;;;;;10.38;5.10;;;2.20;99.90;;;0.64;100.00;102097.94;5334429;26;20034;-82
2024/04/22 05:25:53;;;;;;;9.93;5.00;;;2.20;99.90;;;0.61;100.00;102086.66;5326819;26;20000;-82
2024/04/22 05:28:18;;;;;;;14.13;5.93;;;2.20;99.90;;;0.62;100.00;102087.53;5307955;26;20078;-84
2024/04/22 05:30:52;;;;;;;11.55;6.00;;;2.20;99.90;;;0.63;100.00;102089.28;5296382;26;20004;-82
2024/04/22 05:36:11;;;;;;;10.18;5.32;;;2.20;99.90;;;0.68;100.00;102084.16;5306237;26;20015;-82
2024/04/22 05:38:41;;;;;;;11.73;5.20;;;2.20;99.90;;;0.66;100.00;102091.03;5327720;26;20064;-83
2024/04/22 05:41:14;;;;;;;12.88;5.82;;;2.30;99.90;;;0.66;100.00;102088.47;5326366;26;20003;-84
2024/04/22 05:43:40;;;;;;;9.75;5.72;;;2.30;99.90;;;0.67;100.00;102087.59;5316109;26;20355;-83
2024/04/22 05:46:11;;;;;;;15.05;6.57;;;2.30;99.90;;;0.66;100.00;102084.13;5360281;26;20002;-83
2024/04/22 05:48:43;;;;;;;15.55;6.05;;;2.20;99.90;;;0.67;100.00;102082.41;5252590;26;20593;-83
2024/04/22 05:51:09;;;;;;;17.30;7.45;;;2.30;99.90;;;0.73;100.00;102087.69;5330893;26;20019;-83
2024/04/22 05:53:35;;;;;;;13.43;7.57;;;2.30;99.90;;;0.76;100.00;102090.34;5347358;26;19999;-86
2024/04/22 05:56:01;;;;;;;16.23;6.45;;;2.30;99.90;;;0.79;100.00;102092.97;5329972;26;20043;-83
2024/04/22 05:58:26;;;;;;;12.13;5.70;;;2.30;99.90;;;0.79;100.00;102092.97;5275877;26;20441;-84
2024/04/22 06:00:52;;;;;;;14.60;5.80;;;2.30;99.90;;;0.79;100.00;102086.06;5261724;26;20086;-83
2024/04/22 06:03:24;;;;;;;11.48;5.90;;;2.30;99.90;;;0.81;100.00;102086.09;5297923;26;20008;-83
2024/04/22 06:05:50;;;;;;;10.90;5.22;;;2.30;99.90;;;0.82;100.00;102085.22;5287373;26;20015;-84
2024/04/22 06:08:18;;;;;;;11.40;5.85;;;2.40;99.90;;;0.84;100.00;102080.94;5338831;26;20491;-84
2024/04/22 06:10:44;;;;;;;11.38;5.25;;;2.30;99.90;;;0.89;100.00;102088.81;5317172;26;20007;-84
2024/04/22 06:13:18;;;;;;;20.08;5.10;;;2.40;99.90;;;0.87;100.00;102088.78;5335170;26;20452;-84
2024/04/22 06:15:47;;;;;;;11.77;5.47;;;;;;;0.87;100.00;102090.53;5299383;26;20023;-84
2024/04/22 06:18:20;;;;;;;12.52;5.45;;;2.30;99.90;;;0.85;100.00;102085.31;5287043;26;20007;-84
2024/04/22 06:20:48;;;;;;;14.52;5.97;;;2.40;99.90;;;0.87;100.00;102085.34;5318891;26;20047;-84
2024/04/22 06:23:14;;;;;;;26.85;6.13;;;2.40;99.90;;;0.87;100.00;102090.53;5249214;26;20386;-84
2024/04/22 06:25:40;;;;;;;10.70;5.38;;;2.30;99.90;;;0.86;100.00;102092.22;5273801;26;20019;-85
2024/04/22 06:28:08;;;;;;;9.15;5.03;;;2.40;99.90;;;0.89;100.00;102084.50;5283981;26;20011;-84
2024/04/22 06:30:40;;;;;;;14.25;5.60;;;2.40;99.90;;;0.94;100.00;102093.22;5319020;26;20015;-82
2024/04/22 06:33:06;;;;;;;12.15;5.00;;;2.40;99.90;;;0.90;100.00;102086.22;5333735;26;20053;-83
2024/04/22 06:35:32;;;;;;;11.60;5.70;;;2.40;99.90;;;0.96;100.00;102098.44;5327696;26;19999;-84
2024/04/22 06:37:57;;;;;;;12.05;5.00;;;2.40;99.90;;;1.00;100.00;102097.63;5366229;26;20010;-82
2024/04/22 06:40:23;;;;;;;12.40;6.03;;;2.50;99.90;;;1.05;100.00;102095.09;5351704;26;20355;-83
2024/04/22 06:42:55;;;;;;;14.40;6.55;;;2.50;99.90;;;1.14;100.00;102105.59;5354425;26;20088;-84
2024/04/22 06:45:21;;;;;;;12.40;5.53;;;2.60;99.90;;;1.20;100.00;102095.31;5338905;26;20046;-82
2024/04/22 06:47:47;;;;;;;12.30;6.25;;;2.60;99.90;;;1.23;100.00;102096.25;5266724;26;20000;-83
2024/04/22 06:50:13;;;;;;;11.40;5.63;;;2.70;99.90;;;1.30;100.00;102092.00;5312948;26;20045;-82
2024/04/22 06:52:39;;;;;;;10.10;5.68;;;2.70;99.90;;;1.33;100.00;102094.63;5359958;26;20071;-82
2024/04/22 06:55:16;;;;;;;12.02;6.13;;;2.80;99.90;;;1.40;100.00;102099.06;5302953;26;20402;-82
2024/04/22 06:57:42;;;;;;;11.73;5.93;;;2.80;99.90;;;1.41;100.00;102097.34;5236970;26;20027;-81
2024/04/22 07:00:09;;;;;;;10.57;6.22;;;2.90;99.90;;;1.46;100.00;102097.41;5235411;26;20019;-83
2024/04/22 07:02:39;;;;;;;9.10;5.72;;;2.90;99.90;;;1.52;100.00;102097.47;5310146;26;21331;-82
2024/04/22 07:05:05;;;;;;;10.30;6.00;;;2.90;99.90;;;1.55;100.00;102098.38;5313009;26;20016;-82
2024/04/22 07:07:34;;;;;;;10.95;6.32;;;3.00;99.90;;;1.60;100.00;102099.31;5284639;26;20870;-82
2024/04/22 07:10:12;;;;;;;10.93;6.13;;;3.00;99.90;;;1.68;100.00;102094.19;5347677;26;20007;-84
2024/04/22 07:12:41;;;;;;;11.30;6.20;;;;;;;1.72;100.00;102101.19;5345363;26;20014;-83
2024/04/22 07:15:13;;;;;;;10.23;6.35;;;3.10;99.90;;;1.79;100.00;102094.31;5358490;26;20000;-83
2024/04/22 07:17:42;;;;;;;17.60;9.00;;;3.20;99.90;;;1.87;100.00;102094.44;5294207;26;20008;-83
2024/04/22 07:20:08;;;;;;;9.70;6.10;;;3.20;99.90;;;1.91;100.00;102088.41;5266499;26;19997;-83
2024/04/22 07:22:42;;;;;;;11.63;5.68;;;3.20;99.90;;;1.95;99.46;102091.06;5371726;26;20498;-82
2024/04/22 07:25:10;;;;;;;9.75;5.68;;;3.30;99.90;;;1.91;99.33;102088.41;5306619;26;19998;-82
2024/04/22 07:27:44;;;;;;;10.52;5.25;;;3.30;99.90;;;1.90;98.92;102095.34;5229762;26;20009;-83
2024/04/22 07:30:23;;;;;;;11.35;5.07;;;3.30;99.90;;;1.84;98.48;102093.53;5313150;26;20003;-82
2024/04/22 07:32:52;;;;;;;10.32;4.97;;;3.30;99.90;;;1.85;98.50;102102.19;5244185;26;20066;-83
2024/04/22 07:36:24;;;;;;;8.63;4.70;;;3.20;99.90;;;1.84;98.19;102100.47;5279876;26;20085;-83
2024/04/22 07:39:17;;;;;;;9.18;5.30;;;;;;;1.85;97.82;102100.47;5188564;27;20025;-82
2024/04/22 07:41:44;;;;;;;6.60;4.45;;;3.20;99.90;;;1.84;97.48;102096.13;5160856;27;20010;-82
2024/04/22 07:44:15;;;;;;;8.52;4.00;;;3.30;99.90;;;1.79;97.92;102096.91;5144949;27;20004;-86
2024/04/22 07:46:44;;;;;;;5.97;3.88;;;3.20;99.90;;;1.70;97.68;102100.28;5118931;27;20012;-83
2024/04/22 07:49:10;;;;;;;7.70;4.28;;;3.20;99.90;;;1.67;97.51;102108.03;5100938;27;20024;-85
2024/04/22 07:51:43;;;;;;;6.72;4.10;;;;;;;1.59;97.67;102113.13;5088423;27;20396;-84
2024/04/22 07:54:10;;;;;;;6.68;4.28;;;3.10;99.90;;;1.56;98.01;102107.06;5154867;27;20000;-82
2024/04/22 07:56:36;;;;;;;8.32;3.97;;;3.00;99.90;;;1.51;98.79;102111.28;5119605;27;20026;-81
2024/04/22 07:59:04;;;;;;;6.53;3.55;;;3.00;99.90;;;1.49;98.87;102107.81;5095961;27;20006;-81
2024/04/22 08:01:35;;;;;;;6.60;3.38;;;3.00;99.90;;;1.50;99.08;102114.75;5146970;27;20015;-84
2024/04/22 08:04:02;;;;;;;8.75;3.50;;;3.00;99.90;;;1.45;99.28;102109.50;5121712;27;20011;-81
2024/04/22 08:06:39;;;;;;;6.05;2.97;;;2.90;99.90;;;1.39;99.92;102107.69;5128665;27;20008;-82
2024/04/22 08:09:08;;;;;;;7.38;4.03;;;2.90;99.90;;;1.32;100.00;102116.25;5133085;27;20938;-82
2024/04/22 08:11:35;;;;;;;8.07;3.85;;;2.80;99.90;;;1.21;100.00;102117.84;5149212;26;21201;-81
2024/04/22 08:14:01;;;;;;;7.53;3.33;;;2.80;99.90;;;1.16;100.00;102124.66;5296543;26;20023;-80
2024/04/22 08:16:36;;;;;;;5.90;2.90;;;2.70;99.90;;;1.06;100.00;102120.19;5332898;26;20010;-80
2024/04/22 08:19:01;;;;;;;7.65;3.22;;;2.70;99.90;;;1.01;100.00;102112.34;5388270;26;20519;-79
2024/04/22 08:21:27;;;;;;;7.25;3.22;;;2.60;99.90;;;0.96;100.00;102117.44;5336373;26;19999;-84
2024/04/22 08:24:00;;;;;;;9.88;3.42;;;2.50;99.90;;;0.87;100.00;102106.94;5307498;26;20004;-83
2024/04/22 08:26:26;;;;;;;9.73;2.92;;;2.40;99.90;;;0.79;100.00;102114.59;5233278;26;20004;-84
2024/04/22 08:28:52;;;;;;;4.88;2.72;;;2.40;99.90;;;0.77;100.00;102108.50;5272011;26;20009;-82
2024/04/22 08:31:18;;;;;;;7.93;3.60;;;2.40;99.90;;;0.76;100.00;102109.38;5310480;26;20150;-83
2024/04/22 08:33:44;;;;;;;7.28;3.40;;;;;;;0.76;100.00;102109.38;5254853;26;20013;-84
2024/04/22 08:36:34;;;;;;;10.15;3.10;;;2.40;99.90;;;0.81;100.00;102106.84;5275059;26;20012;-84
2024/04/22 08:39:00;;;;;;;5.55;3.60;;;2.40;99.90;;;0.89;100.00;102107.84;5322032;26;20037;-84
2024/04/22 08:41:26;;;;;;;5.60;3.22;;;;;;;1.00;100.00;102108.88;5291904;26;20004;-83
2024/04/22 08:43:52;;;;;;;4.78;3.38;;;;;;;1.02;100.00;102111.50;5323161;26;19996;-84
2024/04/22 08:46:38;;;;;;;5.93;2.85;;;2.50;99.90;;;1.06;100.00;102110.69;5278196;26;20040;-84
2024/04/22 08:49:05;;;;;;;5.07;3.28;;;;;;;1.08;100.00;102110.69;5152054;27;20003;-83
2024/04/22 08:51:31;;;;;;;5.68;3.55;;;2.60;99.90;;;1.11;100.00;102103.84;5111731;27;20103;-83
2024/04/22 08:54:25;;;;;;;6.85;3.22;;;2.60;99.90;;;1.12;100.00;102097.78;5163249;27;20488;-84
2024/04/22 08:57:04;;;;;;;6.07;3.40;;;2.60;99.90;;;1.26;100.00;102102.31;5165633;27;20467;-85
2024/04/22 08:59:43;;;;;;;4.55;2.55;;;2.70;99.90;;;1.35;100.00;102094.66;5114713;27;20557;-85
2024/04/22 09:02:16;;;;;;;6.70;3.00;;;;;;;1.37;100.00;102099.00;5109574;27;20067;-84
2024/04/22 09:11:02;;;;;;;6.40;3.33;;;;;;;1.64;100.00;102093.31;5095298;27;20095;-83
2024/04/22 09:13:28;;;;;;;5.50;2.80;;;3.10;99.90;;;1.56;100.00;102099.25;5082921;27;20078;-83
2024/04/22 09:16:05;;;;;;;6.90;3.20;;;3.10;99.90;;;1.63;100.00;102098.47;5150042;27;20000;-84
2024/04/22 09:18:33;;;;;;;7.07;3.20;;;3.10;99.90;;;1.60;100.00;102099.31;5129267;27;20008;-83
2024/04/22 09:21:13;;;;;;;6.50;3.38;;;3.10;99.90;;;1.60;100.00;102098.44;5110679;27;20051;-83
2024/04/22 09:23:52;;;;;;;8.20;4.30;;;;;;;1.62;100.00;102104.50;5042572;27;20048;-84
2024/04/22 09:26:57;;;;;;;;;;;;;;;;;;;;;
2024/04/22 09:29:24;;;;;;;8.38;4.28;;;3.20;99.90;;;1.62;100.00;102089.81;5272817;26;20363;-84
2024/04/22 09:32:05;;;;;;;7.95;4.57;;;3.20;99.90;;;1.62;100.00;102088.94;5275230;26;20005;-85
2024/04/22 09:34:42;;;;;;;9.27;4.68;;;3.20;99.90;;;1.59;100.00;102089.75;5253585;27;20489;-84
2024/04/22 09:37:27;;;;;;;11.35;5.00;;;3.20;99.90;;;1.62;100.00;102091.53;5198256;27;20006;-84
2024/04/22 09:40:06;;;;;;;8.98;4.97;;;3.20;99.90;;;1.56;100.00;102091.47;5167680;27;20016;-85
2024/04/22 09:42:45;;;;;;;7.32;4.00;;;3.20;99.90;;;1.51;100.00;102090.53;5184595;27;20022;-84
2024/04/22 09:52:20;;;;;;;5.60;2.67;;;;;;;1.76;100.00;102078.72;4996406;28;20015;-84
2024/04/22 09:55:03;;;;;;;7.25;4.22;;;3.40;99.90;;;1.84;100.00;102084.88;5051213;27;20100;-84
2024/04/22 10:00:45;;;;;;;;;;;;;;;;;;;;;
2024/04/22 10:03:16;;;;;;;5.18;3.38;;;;;;;2.16;100.00;102086.91;4985795;28;21163;-83
2024/04/22 10:06:16;;;;;;;7.03;3.80;;;;;;;2.40;100.00;102076.78;4969319;28;20434;-83
2024/04/22 10:08:54;;;;;;;5.80;3.47;;;4.10;99.90;;;2.86;100.00;102081.47;5023133;28;20015;-84
2024/04/22 10:11:33;;;;;;;7.03;3.40;;;;;;;3.17;100.00;102082.50;4971455;28;20015;-84
2024/04/22 10:14:29;;;;;;;5.35;2.20;;;;;;;3.51;100.00;102084.44;5008285;28;20509;-84
2024/04/22 10:17:06;;;;;;;4.80;2.13;;;;;;;3.75;100.00;102087.13;4975258;28;20008;-84
2024/04/22 10:20:22;;;;;;;4.40;2.53;;;;;;;4.24;97.93;102087.25;4979770;28;20024;-84
2024/04/22 10:23:44;;;;;;;2.05;1.77;;;5.60;99.90;;;4.40;95.79;102079.44;5013495;28;20019;-83
2024/04/22 10:26:25;;;;;;;4.10;2.60;;;5.90;99.90;;;4.59;92.61;102080.31;5085953;21;20016;-83
2024/04/22 10:28:57;;;;;;;4.90;2.60;;;6.00;99.90;;;4.72;90.23;102074.22;5203316;26;20020;-83
2024/04/22 10:31:25;;;;;;;4.10;2.83;;;;;;;4.96;89.44;102070.69;5219820;27;20047;-82
2024/04/22 10:33:57;;;;;;;5.28;2.28;;;6.30;99.90;;;5.06;88.59;102072.44;5188651;27;20105;-81
2024/04/22 10:36:46;;;;;;;2.95;2.20;;;6.30;99.90;;;4.88;86.95;102065.50;5204636;26;20449;-82
2024/04/22 10:39:15;;;;;;;3.30;2.15;;;6.40;99.90;;;4.95;87.30;102063.75;5211594;27;20158;-82
2024/04/22 10:41:42;;;;;;;4.38;2.13;;;6.40;99.90;;;5.05;84.93;102062.84;5161340;27;20084;-82
2024/04/22 10:44:17;;;;;;;4.63;2.13;;;5.70;99.90;;;4.93;84.28;102055.94;5202197;27;20018;-82
2024/04/22 10:46:44;;;;;;;5.82;2.55;;;6.40;99.90;;;5.07;83.88;102061.09;5174688;27;20051;-83
2024/04/22 10:49:29;;;;;;;3.85;1.95;;;6.30;99.90;;;4.33;84.29;102049.88;5190554;27;20012;-84
2024/04/22 10:52:03;;;;;;;5.80;2.50;;;5.90;99.90;;;3.88;85.81;102041.13;5192861;27;20019;-83
2024/04/22 10:54:38;;;;;;;4.20;2.60;;;5.70;99.90;;;3.79;87.15;102041.97;5224280;27;20014;-83
2024/04/22 10:57:21;;;;;;;3.78;2.00;;;5.50;99.90;;;3.55;88.18;102041.91;5228821;27;20018;-83
2024/04/22 11:00:01;;;;;;;6.47;2.70;;;5.30;99.90;;;3.50;88.66;102039.31;5213205;27;20026;-84